Time;durP1;ratioP1;P1;durP2;ratioP2;P2;SDS_P1;SDS_P2;PMS_P1;PMS_P2;Temp;Humidity;BMP_temperature;BMP_pressure;BME280_temperature;BME280_humidity;BME280_pressure;Samples;Min_cycle;Max_cycle;Signal;HPM_P1;HPM_P2
2021/12/17 00:00:45;;;;;;;21.92;17.90;;;;;;;;;;5074942;28;20422;-80
2021/12/17 00:03:18;;;;;;;27.13;19.53;;;;;;;;;;5058554;28;20298;-79
2021/12/17 00:06:05;;;;;;;22.50;18.97;;;;;;;;;;5055357;28;20511;-79
2021/12/17 00:08:32;;;;;;;23.17;18.60;;;;;;;;;;5056643;28;20445;-80
2021/12/17 00:10:59;;;;;;;21.00;18.20;;;;;;;;;;5056464;28;20461;-80
2021/12/17 00:13:26;;;;;;;20.47;18.30;;;;;;;;;;5057704;28;20442;-79
2021/12/17 00:15:53;;;;;;;22.20;17.53;;;;;;;;;;5060951;28;20461;-79
2021/12/17 00:18:26;;;;;;;18.40;16.50;;;;;;;;;;5070761;28;20446;-80
2021/12/17 00:40:31;;;;;;;22.25;18.10;;;;;;;;;;5077016;28;20532;-79
2021/12/17 00:48:37;;;;;;;26.57;17.57;;;;;;;;;;5052803;28;20416;-80
2021/12/17 00:53:53;;;;;;;22.00;17.90;;;;;;;;;;5052798;28;20798;-79
2021/12/17 00:56:20;;;;;;;18.80;16.77;;;;;;;;;;5062348;28;20469;-79
2021/12/17 00:58:47;;;;;;;20.73;17.33;;;;;;;;;;5072839;28;20441;-79
2021/12/17 01:01:15;;;;;;;19.73;17.73;;;;;;;;;;5073114;28;20441;-79
2021/12/17 01:03:42;;;;;;;20.13;17.87;;;;;;;;;;5069054;28;20438;-78
2021/12/17 01:06:09;;;;;;;21.85;17.17;;;;;;;;;;5072563;28;20457;-79
2021/12/17 01:08:36;;;;;;;22.50;17.40;;;;;;;;;;5067700;28;20198;-79
2021/12/17 01:11:05;;;;;;;22.43;19.90;;;;;;;;;;5054971;28;20448;-80
2021/12/17 01:13:33;;;;;;;19.60;16.60;;;;;;;;;;5055403;28;20445;-79
2021/12/17 01:16:00;;;;;;;22.43;18.60;;;;;;;;;;5054634;28;20448;-79
2021/12/17 01:18:40;;;;;;;21.33;17.97;;;;;;;;;;5055040;28;20472;-80
2021/12/17 01:21:28;;;;;;;25.10;18.00;;;;;;;;;;5053869;28;20513;-79
2021/12/17 01:43:08;;;;;;;19.27;17.00;;;;;;;;;;5045768;28;20484;-80
2021/12/17 01:45:38;;;;;;;19.47;17.37;;;;;;;;;;5058516;28;20484;-79
2021/12/17 01:48:09;;;;;;;18.83;16.83;;;;;;;;;;5055557;28;20461;-79
2021/12/17 01:56:18;;;;;;;18.90;17.00;;;;;;;;;;5052756;28;20213;-79
2021/12/17 02:01:32;;;;;;;19.33;17.30;;;;;;;;;;5045358;28;20482;-77
2021/12/17 02:03:59;;;;;;;19.47;17.43;;;;;;;;;;5052648;28;20515;-79
2021/12/17 02:06:29;;;;;;;18.70;16.70;;;;;;;;;;5052695;28;20452;-80
2021/12/17 02:08:58;;;;;;;19.20;17.10;;;;;;;;;;5052351;28;20890;-79
2021/12/17 02:11:58;;;;;;;21.97;18.80;;;;;;;;;;5053176;28;20445;-80
2021/12/17 02:20:11;;;;;;;21.20;17.37;;;;;;;;;;5052975;28;20428;-80
2021/12/17 02:23:10;;;;;;;21.30;17.77;;;;;;;;;;5052241;28;20466;-79
2021/12/17 02:31:23;;;;;;;21.97;17.67;;;;;;;;;;5054200;28;20421;-80
2021/12/17 02:33:50;;;;;;;21.20;17.10;;;;;;;;;;5053033;28;20477;-80
2021/12/17 02:36:21;;;;;;;19.20;17.23;;;;;;;;;;5052136;28;20473;-80
2021/12/17 02:38:50;;;;;;;18.97;16.87;;;;;;;;;;5054820;28;20445;-79
2021/12/17 02:47:01;;;;;;;18.03;16.07;;;;;;;;;;4996048;28;20976;-79
2021/12/17 02:49:30;;;;;;;20.80;17.65;;;;;;;;;;4999062;28;20428;-79
2021/12/17 02:51:57;;;;;;;20.97;17.90;;;;;;;;;;5023271;28;20265;-80
2021/12/17 02:54:26;;;;;;;18.60;16.60;;;;;;;;;;5058043;28;20465;-80
2021/12/17 02:56:53;;;;;;;19.13;16.27;;;;;;;;;;5056848;28;20199;-78
2021/12/17 02:59:20;;;;;;;18.35;16.35;;;;;;;;;;5058660;28;20511;-79
2021/12/17 03:01:48;;;;;;;20.13;17.10;;;;;;;;;;5057403;28;20210;-79
2021/12/17 03:04:16;;;;;;;19.33;16.87;;;;;;;;;;5059440;28;20451;-80
2021/12/17 03:06:43;;;;;;;18.63;16.70;;;;;;;;;;5061377;28;20438;-79
2021/12/17 03:09:11;;;;;;;20.07;17.23;;;;;;;;;;5061920;28;20453;-80
2021/12/17 03:11:39;;;;;;;18.93;16.97;;;;;;;;;;5059340;28;20953;-80
2021/12/17 03:14:07;;;;;;;24.30;17.43;;;;;;;;;;5058170;28;20807;-79
2021/12/17 03:16:39;;;;;;;19.20;16.33;;;;;;;;;;5059559;28;20430;-79
2021/12/17 03:19:11;;;;;;;19.03;16.60;;;;;;;;;;5058007;28;20472;-79
2021/12/17 03:24:22;;;;;;;19.50;16.53;;;;;;;;;;5058605;28;20441;-79
2021/12/17 03:26:51;;;;;;;18.90;16.70;;;;;;;;;;5059154;28;20453;-79
2021/12/17 03:29:18;;;;;;;20.50;17.33;;;;;;;;;;5060095;28;20480;-80
2021/12/17 03:31:45;;;;;;;19.47;16.60;;;;;;;;;;5058904;28;20449;-79
2021/12/17 03:34:22;;;;;;;18.87;16.87;;;;;;;;;;5057324;28;20450;-79
2021/12/17 03:36:53;;;;;;;24.23;18.20;;;;;;;;;;5056827;28;20449;-79
2021/12/17 03:39:20;;;;;;;21.33;18.60;;;;;;;;;;5057134;28;20461;-81
2021/12/17 03:41:51;;;;;;;19.53;17.50;;;;;;;;;;5057556;28;20446;-79
2021/12/17 03:44:19;;;;;;;20.00;17.60;;;;;;;;;;5071290;28;20449;-79
2021/12/17 03:46:47;;;;;;;21.95;18.25;;;;;;;;;;5070839;28;20219;-79
2021/12/17 03:49:15;;;;;;;21.63;18.02;;;;;;;;;;5068475;28;20203;-79
2021/12/17 03:51:50;;;;;;;22.40;19.20;;;;;;;;;;5067524;28;20226;-79
2021/12/17 03:54:18;;;;;;;24.50;18.30;;;;;;;;;;5068535;28;20444;-80
2021/12/17 03:56:45;;;;;;;22.97;18.77;;;;;;;;;;5072116;28;20497;-79
2021/12/17 03:59:13;;;;;;;21.70;18.53;;;;;;;;;;5074464;28;20446;-78
2021/12/17 04:01:41;;;;;;;26.30;19.53;;;;;;;;;;5063016;28;20445;-80
2021/12/17 04:04:09;;;;;;;20.17;18.07;;;;;;;;;;5056073;28;20465;-78
2021/12/17 04:06:36;;;;;;;23.90;19.07;;;;;;;;;;5055708;28;20437;-79
2021/12/17 04:09:04;;;;;;;25.07;19.23;;;;;;;;;;5054973;28;20447;-79
2021/12/17 04:11:32;;;;;;;22.00;19.63;;;;;;;;;;5054778;28;20452;-79
2021/12/17 04:13:59;;;;;;;23.40;19.20;;;;;;;;;;5055435;28;20445;-79
2021/12/17 04:16:30;;;;;;;24.35;21.17;;;;;;;;;;5058983;28;20441;-79
2021/12/17 04:18:59;;;;;;;21.95;19.00;;;;;;;;;;5057912;28;20437;-79
2021/12/17 04:21:26;;;;;;;23.20;20.80;;;;;;;;;;5056210;28;20282;-79
2021/12/17 04:23:54;;;;;;;23.50;19.97;;;;;;;;;;5055753;28;20489;-79
2021/12/17 04:26:22;;;;;;;22.90;19.90;;;;;;;;;;5051392;28;20461;-78
2021/12/17 04:28:51;;;;;;;23.97;19.43;;;;;;;;;;5054620;28;20441;-79
2021/12/17 04:31:19;;;;;;;27.52;22.45;;;;;;;;;;5056520;28;20537;-79
2021/12/17 04:33:46;;;;;;;22.63;19.63;;;;;;;;;;5054235;28;20598;-80
2021/12/17 04:36:22;;;;;;;22.67;19.47;;;;;;;;;;5055262;28;20454;-79
2021/12/17 04:38:49;;;;;;;22.47;19.97;;;;;;;;;;5055018;28;20548;-80
2021/12/17 04:41:39;;;;;;;26.07;21.23;;;;;;;;;;5054096;28;20441;-79
2021/12/17 04:44:11;;;;;;;26.87;20.57;;;;;;;;;;5052895;28;20477;-79
2021/12/17 04:46:44;;;;;;;22.60;20.00;;;;;;;;;;5053786;28;20446;-79
2021/12/17 04:57:31;;;;;;;25.80;20.40;;;;;;;;;;5057133;28;20417;-79
2021/12/17 05:00:01;;;;;;;24.65;20.83;;;;;;;;;;5059899;28;20202;-79
2021/12/17 05:02:29;;;;;;;24.80;21.10;;;;;;;;;;5056031;28;20214;-79
2021/12/17 05:04:56;;;;;;;22.20;18.73;;;;;;;;;;5055283;28;20504;-79
2021/12/17 05:07:25;;;;;;;24.42;20.08;;;;;;;;;;5055740;28;20449;-80
2021/12/17 05:10:01;;;;;;;26.50;20.37;;;;;;;;;;5054585;28;20199;-79
2021/12/17 05:18:22;;;;;;;24.13;20.73;;;;;;;;;;5055579;28;20433;-82
2021/12/17 05:20:52;;;;;;;24.30;20.53;;;;;;;;;;5052883;28;20203;-79
2021/12/17 05:23:24;;;;;;;24.90;21.67;;;;;;;;;;5055380;28;20710;-82
2021/12/17 05:25:51;;;;;;;22.67;20.17;;;;;;;;;;5054710;28;20599;-81
2021/12/17 05:28:18;;;;;;;24.23;20.00;;;;;;;;;;5053596;28;20441;-81
2021/12/17 05:30:47;;;;;;;26.97;22.03;;;;;;;;;;5054429;28;20470;-80
2021/12/17 05:33:14;;;;;;;24.40;21.23;;;;;;;;;;5054350;28;20450;-80
2021/12/17 05:35:41;;;;;;;25.20;20.30;;;;;;;;;;5055223;28;20453;-82
2021/12/17 05:38:08;;;;;;;24.43;21.83;;;;;;;;;;5054196;28;20446;-80
2021/12/17 05:40:37;;;;;;;25.60;20.97;;;;;;;;;;5054555;28;20812;-81
2021/12/17 05:43:06;;;;;;;25.63;19.70;;;;;;;;;;5053667;28;20476;-79
2021/12/17 05:45:35;;;;;;;21.80;19.00;;;;;;;;;;5053894;28;20462;-81
2021/12/17 05:48:03;;;;;;;25.38;20.45;;;;;;;;;;5054224;28;20512;-82
2021/12/17 05:50:30;;;;;;;28.10;21.87;;;;;;;;;;5053829;28;20206;-81
2021/12/17 05:52:57;;;;;;;28.30;20.83;;;;;;;;;;5053994;28;20437;-81
2021/12/17 05:55:24;;;;;;;23.57;19.83;;;;;;;;;;5054377;28;20465;-81
2021/12/17 05:57:53;;;;;;;23.17;20.27;;;;;;;;;;5056024;28;20429;-81
2021/12/17 06:00:20;;;;;;;25.97;20.90;;;;;;;;;;5056935;28;20445;-79
2021/12/17 06:02:51;;;;;;;24.47;19.83;;;;;;;;;;5058626;28;20490;-80
2021/12/17 06:05:22;;;;;;;26.97;22.07;;;;;;;;;;5059980;28;20519;-79
2021/12/17 06:07:49;;;;;;;24.23;19.43;;;;;;;;;;5058760;28;20517;-80
2021/12/17 06:10:17;;;;;;;22.60;19.57;;;;;;;;;;5058659;28;20430;-81
2021/12/17 06:12:44;;;;;;;24.23;19.25;;;;;;;;;;5058198;28;20445;-80
2021/12/17 06:15:14;;;;;;;27.83;24.80;;;;;;;;;;5054617;28;20227;-80
2021/12/17 06:17:41;;;;;;;23.57;19.63;;;;;;;;;;5060276;28;20453;-79
2021/12/17 06:20:09;;;;;;;21.38;18.95;;;;;;;;;;5054301;28;20457;-82
2021/12/17 06:22:36;;;;;;;21.00;18.00;;;;;;;;;;5053591;28;20195;-81
2021/12/17 06:25:04;;;;;;;22.67;19.70;;;;;;;;;;5054425;28;20879;-79
2021/12/17 06:27:31;;;;;;;23.17;19.57;;;;;;;;;;5053967;28;20803;-79
2021/12/17 06:29:58;;;;;;;22.60;19.17;;;;;;;;;;5055884;28;20856;-81
2021/12/17 06:32:27;;;;;;;21.87;18.23;;;;;;;;;;5056440;28;20450;-82
2021/12/17 06:34:54;;;;;;;43.77;35.07;;;;;;;;;;5054208;28;20461;-81
2021/12/17 06:37:21;;;;;;;25.73;19.13;;;;;;;;;;5054683;28;20798;-81
2021/12/17 06:39:48;;;;;;;23.70;20.20;;;;;;;;;;5055181;28;20460;-81
2021/12/17 06:42:16;;;;;;;28.17;23.47;;;;;;;;;;5053526;28;20445;-81
2021/12/17 06:44:45;;;;;;;26.80;21.60;;;;;;;;;;5052173;28;20481;-81
2021/12/17 06:47:24;;;;;;;25.65;19.73;;;;;;;;;;5053656;28;20500;-81
2021/12/17 06:49:57;;;;;;;23.83;18.90;;;;;;;;;;5053129;28;20203;-80
2021/12/17 06:55:25;;;;;;;23.00;19.37;;;;;;;;;;5053831;28;20448;-81
2021/12/17 06:58:39;;;;;;;20.23;17.20;;;;;;;;;;5052928;28;20519;-82
2021/12/17 07:01:15;;;;;;;18.80;16.50;;;;;;;;;;5052171;28;20535;-81
2021/12/17 07:06:50;;;;;;;20.60;16.10;;;;;;;;;;5052603;28;20445;-79
2021/12/17 07:10:03;;;;;;;20.50;17.20;;;;;;;;;;5052930;28;20790;-81
2021/12/17 07:18:27;;;;;;;22.10;19.10;;;;;;;;;;5060113;28;20425;-80
2021/12/17 07:24:04;;;;;;;20.00;16.60;;;;;;;;;;5052664;28;20511;-81
2021/12/17 07:35:24;;;;;;;20.50;17.57;;;;;;;;;;5060977;28;20797;-79
2021/12/17 07:40:37;;;;;;;18.83;15.87;;;;;;;;;;5060996;28;20421;-80
2021/12/17 07:43:11;;;;;;;19.35;16.13;;;;;;;;;;5061004;28;20477;-79
2021/12/17 07:45:38;;;;;;;16.42;14.25;;;;;;;;;;5059949;28;20262;-79
2021/12/17 07:48:05;;;;;;;27.10;14.90;;;;;;;;;;5058342;28;20222;-79
2021/12/17 07:50:32;;;;;;;16.50;14.50;;;;;;;;;;5055467;28;20457;-79
2021/12/17 07:53:00;;;;;;;15.57;14.03;;;;;;;;;;5057834;28;20480;-79
2021/12/17 07:55:27;;;;;;;16.77;14.70;;;;;;;;;;5059312;28;20482;-79
2021/12/17 07:57:55;;;;;;;15.47;13.63;;;;;;;;;;5058902;28;20453;-79
2021/12/17 08:00:22;;;;;;;15.23;13.65;;;;;;;;;;5058058;28;20437;-79
2021/12/17 08:02:49;;;;;;;15.17;13.40;;;;;;;;;;5059202;28;20187;-80
2021/12/17 08:05:17;;;;;;;15.63;13.30;;;;;;;;;;5054027;28;20466;-78
2021/12/17 08:07:45;;;;;;;16.50;14.70;;;;;;;;;;5052378;28;20504;-79
2021/12/17 08:10:12;;;;;;;15.20;13.10;;;;;;;;;;5056648;28;20434;-79
2021/12/17 08:12:39;;;;;;;15.40;12.60;;;;;;;;;;5053897;28;20446;-78
2021/12/17 08:15:10;;;;;;;16.43;14.63;;;;;;;;;;5053179;28;20465;-78
2021/12/17 08:26:05;;;;;;;14.97;13.20;;;;;;;;;;5052946;28;21140;-78
2021/12/17 08:28:51;;;;;;;15.70;14.10;;;;;;;;;;5053768;28;20951;-78
2021/12/17 08:31:20;;;;;;;10.37;9.37;;;;;;;;;;5054293;28;20426;-78
2021/12/17 08:33:47;;;;;;;11.93;9.80;;;;;;;;;;5054326;28;20937;-79
2021/12/17 08:36:15;;;;;;;12.53;11.33;;;;;;;;;;5054504;28;20488;-78
2021/12/17 08:38:42;;;;;;;27.37;22.97;;;;;;;;;;5055074;28;20485;-79
2021/12/17 08:41:10;;;;;;;16.98;15.20;;;;;;;;;;5060198;28;20432;-79
2021/12/17 08:43:37;;;;;;;14.37;12.87;;;;;;;;;;5056769;28;20260;-79
2021/12/17 08:46:04;;;;;;;16.30;13.83;;;;;;;;;;5056436;28;20876;-79
2021/12/17 08:48:32;;;;;;;12.00;10.73;;;;;;;;;;5058911;28;20454;-79
2021/12/17 08:51:00;;;;;;;12.10;10.30;;;;;;;;;;5059176;28;20445;-80
2021/12/17 08:53:27;;;;;;;10.43;9.43;;;;;;;;;;5058587;28;20442;-81
2021/12/17 08:55:54;;;;;;;11.97;8.83;;;;;;;;;;5060179;28;20472;-79
2021/12/17 08:58:21;;;;;;;6.83;6.33;;;;;;;;;;5061989;28;20878;-81
2021/12/17 09:00:48;;;;;;;8.27;7.47;;;;;;;;;;5060573;28;20933;-80
2021/12/17 09:03:15;;;;;;;9.47;8.37;;;;;;;;;;5065074;28;20434;-81
2021/12/17 09:05:45;;;;;;;10.30;8.20;;;;;;;;;;5065617;28;20466;-82
2021/12/17 09:08:13;;;;;;;12.40;7.70;;;;;;;;;;5064182;28;20434;-81
2021/12/17 09:10:43;;;;;;;8.10;7.37;;;;;;;;;;5061817;28;20195;-82
2021/12/17 09:13:11;;;;;;;14.13;10.85;;;;;;;;;;5060330;28;20469;-81
2021/12/17 09:15:39;;;;;;;8.90;8.10;;;;;;;;;;5061584;28;20219;-83
2021/12/17 09:18:09;;;;;;;9.53;8.63;;;;;;;;;;5057724;28;20795;-83
2021/12/17 09:20:37;;;;;;;9.70;8.70;;;;;;;;;;5052613;28;20453;-83
2021/12/17 09:23:07;;;;;;;8.27;7.47;;;;;;;;;;5060476;28;20454;-81
2021/12/17 09:25:34;;;;;;;7.77;7.07;;;;;;;;;;5053437;28;20466;-82
2021/12/17 09:28:02;;;;;;;8.20;7.40;;;;;;;;;;5055438;28;20459;-82
2021/12/17 09:30:29;;;;;;;9.60;8.80;;;;;;;;;;5051181;28;20445;-82
2021/12/17 09:32:56;;;;;;;7.63;7.03;;;;;;;;;;5055639;28;20874;-80
2021/12/17 09:35:24;;;;;;;8.40;7.70;;;;;;;;;;5065292;28;20221;-80
2021/12/17 09:37:51;;;;;;;8.20;7.30;;;;;;;;;;5066648;28;20955;-79
2021/12/17 09:40:20;;;;;;;8.95;8.13;;;;;;;;;;5057689;28;20449;-80
2021/12/17 09:42:47;;;;;;;9.00;8.27;;;;;;;;;;5055862;28;20256;-79
2021/12/17 09:45:15;;;;;;;8.47;7.50;;;;;;;;;;5056673;28;20488;-80
2021/12/17 09:47:43;;;;;;;7.20;6.60;;;;;;;;;;5055792;28;20449;-80
2021/12/17 09:50:11;;;;;;;11.00;7.50;;;;;;;;;;5057032;28;20940;-80
2021/12/17 09:52:38;;;;;;;8.13;7.43;;;;;;;;;;5056553;28;20436;-80
2021/12/17 09:55:06;;;;;;;8.55;7.28;;;;;;;;;;5057728;28;20463;-80
2021/12/17 09:57:36;;;;;;;7.50;6.90;;;;;;;;;;5057658;28;20248;-81
2021/12/17 10:00:04;;;;;;;7.60;7.00;;;;;;;;;;5056885;28;20206;-79
2021/12/17 10:02:31;;;;;;;8.67;7.87;;;;;;;;;;5056559;28;20425;-80
2021/12/17 10:04:58;;;;;;;8.67;7.83;;;;;;;;;;5057250;28;20503;-80
2021/12/17 10:07:26;;;;;;;16.33;12.93;;;;;;;;;;5055856;28;20449;-81
2021/12/17 10:09:54;;;;;;;8.25;7.53;;;;;;;;;;5057378;28;20289;-80
2021/12/17 10:12:24;;;;;;;7.95;7.03;;;;;;;;;;5056412;28;20440;-82
2021/12/17 10:15:07;;;;;;;8.57;7.73;;;;;;;;;;5056704;28;20464;-82
2021/12/17 10:17:35;;;;;;;8.30;7.33;;;;;;;;;;5056790;28;20955;-80
2021/12/17 10:20:03;;;;;;;9.23;8.40;;;;;;;;;;5056549;28;20457;-82
2021/12/17 10:22:31;;;;;;;8.93;8.13;;;;;;;;;;5070621;28;20440;-79
2021/12/17 10:24:59;;;;;;;8.00;7.30;;;;;;;;;;5062886;28;20474;-81
2021/12/17 10:27:27;;;;;;;8.43;7.63;;;;;;;;;;5056757;28;20438;-81
2021/12/17 10:29:55;;;;;;;9.93;8.67;;;;;;;;;;5056381;28;20449;-81
2021/12/17 10:32:24;;;;;;;8.50;7.80;;;;;;;;;;5056299;28;20448;-80
2021/12/17 10:34:59;;;;;;;8.70;8.00;;;;;;;;;;5056514;28;20462;-81
2021/12/17 10:37:32;;;;;;;8.60;7.70;;;;;;;;;;5055297;28;20441;-81
2021/12/17 10:39:59;;;;;;;9.47;8.57;;;;;;;;;;5055566;28;20480;-81
2021/12/17 10:42:31;;;;;;;9.00;8.25;;;;;;;;;;5056301;28;20440;-81
2021/12/17 10:45:04;;;;;;;9.30;8.40;;;;;;;;;;5055032;28;20264;-81
2021/12/17 10:47:34;;;;;;;9.82;9.02;;;;;;;;;;5055101;28;20465;-80
2021/12/17 10:50:03;;;;;;;10.13;9.17;;;;;;;;;;5054977;28;20306;-81
2021/12/17 10:52:36;;;;;;;10.83;9.83;;;;;;;;;;5055697;28;20899;-79
2021/12/17 10:55:11;;;;;;;10.83;9.73;;;;;;;;;;5055696;28;20461;-81
2021/12/17 10:57:38;;;;;;;10.67;9.67;;;;;;;;;;5054720;28;20829;-80
2021/12/17 11:00:06;;;;;;;10.60;9.60;;;;;;;;;;5056936;28;20452;-82
2021/12/17 11:02:37;;;;;;;10.43;9.47;;;;;;;;;;5059671;28;20199;-81
2021/12/17 11:05:12;;;;;;;9.27;8.57;;;;;;;;;;5059902;28;20492;-81
2021/12/17 11:07:39;;;;;;;13.67;9.20;;;;;;;;;;5059903;28;20429;-80
2021/12/17 11:10:07;;;;;;;9.37;8.30;;;;;;;;;;5059425;28;20475;-81
2021/12/17 11:12:35;;;;;;;9.80;8.93;;;;;;;;;;5058888;28;20481;-83
2021/12/17 11:15:21;;;;;;;9.53;8.70;;;;;;;;;;5059844;28;20726;-82
2021/12/17 11:17:50;;;;;;;10.10;9.30;;;;;;;;;;5059816;28;20434;-82
2021/12/17 11:20:19;;;;;;;10.60;9.60;;;;;;;;;;5058423;28;20932;-81
2021/12/17 11:22:46;;;;;;;10.40;9.43;;;;;;;;;;5057553;28;20448;-80
2021/12/17 11:25:13;;;;;;;9.13;8.43;;;;;;;;;;5057653;28;20493;-80
2021/12/17 11:27:41;;;;;;;9.23;8.33;;;;;;;;;;5057168;28;20453;-82
2021/12/17 11:30:09;;;;;;;10.80;9.70;;;;;;;;;;5057932;28;20432;-82
2021/12/17 11:32:36;;;;;;;9.87;8.97;;;;;;;;;;5058108;28;20839;-83
2021/12/17 11:35:06;;;;;;;10.30;9.37;;;;;;;;;;5071743;28;20433;-82
2021/12/17 11:37:34;;;;;;;10.10;9.17;;;;;;;;;;5078760;28;20446;-82
2021/12/17 11:40:02;;;;;;;9.27;8.47;;;;;;;;;;5078358;28;20433;-79
2021/12/17 11:42:42;;;;;;;9.82;8.90;;;;;;;;;;5078369;28;20449;-82
2021/12/17 11:45:25;;;;;;;9.43;8.50;;;;;;;;;;5065810;28;20223;-83
2021/12/17 11:47:53;;;;;;;10.20;9.20;;;;;;;;;;5059971;28;20441;-83
2021/12/17 11:50:22;;;;;;;10.17;9.20;;;;;;;;;;5058575;28;21004;-82
2021/12/17 11:52:50;;;;;;;9.80;8.90;;;;;;;;;;5059640;28;20815;-82
2021/12/17 11:55:23;;;;;;;10.68;9.60;;;;;;;;;;5059774;28;20464;-83
2021/12/17 11:57:51;;;;;;;10.13;9.23;;;;;;;;;;5057923;28;20210;-82
2021/12/17 12:00:19;;;;;;;8.33;7.63;;;;;;;;;;5057977;28;20449;-80
2021/12/17 12:02:48;;;;;;;9.27;8.37;;;;;;;;;;5058185;28;20447;-81
2021/12/17 12:05:33;;;;;;;9.63;8.73;;;;;;;;;;5057850;28;20546;-82
2021/12/17 12:08:24;;;;;;;10.52;8.82;;;;;;;;;;5058216;28;20432;-80
2021/12/17 12:11:04;;;;;;;9.37;8.47;;;;;;;;;;5057873;28;20264;-80
2021/12/17 12:13:35;;;;;;;11.70;8.63;;;;;;;;;;5057027;28;20456;-81
2021/12/17 12:16:03;;;;;;;10.03;9.13;;;;;;;;;;5057382;28;20519;-80
2021/12/17 12:18:39;;;;;;;9.10;8.20;;;;;;;;;;5057810;28;20485;-80
2021/12/17 12:21:07;;;;;;;9.07;8.17;;;;;;;;;;5057810;28;20490;-81
2021/12/17 12:24:01;;;;;;;9.40;8.60;;;;;;;;;;5057310;28;20450;-80
2021/12/17 12:26:34;;;;;;;8.90;8.00;;;;;;;;;;5057724;28;20485;-81
2021/12/17 12:29:05;;;;;;;11.97;9.10;;;;;;;;;;5058576;28;20445;-82
2021/12/17 12:31:55;;;;;;;8.33;7.53;;;;;;;;;;5060924;28;20447;-81
2021/12/17 12:34:28;;;;;;;8.53;7.57;;;;;;;;;;5059851;28;20516;-82
2021/12/17 12:36:57;;;;;;;8.97;8.17;;;;;;;;;;5059803;28;20495;-82
2021/12/17 12:39:25;;;;;;;7.90;7.10;;;;;;;;;;5061080;28;20451;-79
2021/12/17 12:42:00;;;;;;;8.40;7.50;;;;;;;;;;5060075;28;20453;-81
2021/12/17 12:44:54;;;;;;;8.60;7.80;;;;;;;;;;5059525;28;20523;-81
2021/12/17 12:47:36;;;;;;;9.30;8.47;;;;;;;;;;5022628;28;20457;-84
2021/12/17 12:50:07;;;;;;;15.10;11.98;;;;;;;;;;5061217;28;20433;-82
2021/12/17 12:52:37;;;;;;;38.83;29.70;;;;;;;;;;5059363;28;20609;-80
2021/12/17 12:55:06;;;;;;;9.03;7.80;;;;;;;;;;5059475;28;20500;-82
2021/12/17 12:57:36;;;;;;;10.00;9.10;;;;;;;;;;5061501;28;20453;-81
2021/12/17 13:00:07;;;;;;;8.50;7.70;;;;;;;;;;5059265;28;20435;-80
2021/12/17 13:02:34;;;;;;;9.93;8.93;;;;;;;;;;5059002;28;20451;-81
2021/12/17 13:05:01;;;;;;;9.48;8.57;;;;;;;;;;5059807;28;20486;-80
2021/12/17 13:07:33;;;;;;;9.13;8.23;;;;;;;;;;5059203;28;20512;-81
2021/12/17 13:10:07;;;;;;;8.73;7.93;;;;;;;;;;5057150;28;20465;-80
2021/12/17 13:12:36;;;;;;;9.40;8.40;;;;;;;;;;5056684;28;20435;-80
2021/12/17 13:15:16;;;;;;;8.90;8.10;;;;;;;;;;5057126;28;20899;-81
2021/12/17 13:20:16;;;;;;;10.27;9.32;;;;;;;;;;5057431;28;20461;-83
2021/12/17 13:20:54;;;;;;;9.33;8.13;;;;;;;;;;5056534;28;20279;-79
2021/12/17 13:23:22;;;;;;;9.73;8.15;;;;;;;;;;5056189;28;20441;-81
2021/12/17 13:26:00;;;;;;;9.13;8.23;;;;;;;;;;5056026;28;20226;-79
2021/12/17 13:28:29;;;;;;;10.20;8.70;;;;;;;;;;5056803;28;20944;-80
2021/12/17 13:30:56;;;;;;;9.40;7.63;;;;;;;;;;5056839;28;20468;-81
2021/12/17 13:33:23;;;;;;;9.70;8.80;;;;;;;;;;5056116;28;20835;-81
2021/12/17 13:35:50;;;;;;;8.65;7.75;;;;;;;;;;5056232;28;20911;-81
2021/12/17 13:38:17;;;;;;;11.45;8.50;;;;;;;;;;5058422;28;20307;-80
2021/12/17 13:40:52;;;;;;;8.93;8.03;;;;;;;;;;5056391;28;20208;-79
2021/12/17 13:43:28;;;;;;;9.50;8.60;;;;;;;;;;5057866;28;20444;-80
2021/12/17 13:45:55;;;;;;;10.03;8.17;;;;;;;;;;5057202;28;20488;-79
2021/12/17 13:48:23;;;;;;;9.68;8.50;;;;;;;;;;5055637;28;20448;-82
2021/12/17 13:50:50;;;;;;;10.07;8.87;;;;;;;;;;5056740;28;20190;-79
2021/12/17 13:53:18;;;;;;;10.60;9.23;;;;;;;;;;5056653;28;20449;-80
2021/12/17 13:55:47;;;;;;;10.13;9.10;;;;;;;;;;5056038;28;20539;-79
2021/12/17 13:58:15;;;;;;;10.07;8.70;;;;;;;;;;5070169;28;20449;-81
2021/12/17 14:00:44;;;;;;;12.63;11.27;;;;;;;;;;5068889;28;20439;-79
2021/12/17 14:03:13;;;;;;;9.83;8.83;;;;;;;;;;5067814;28;20201;-81
2021/12/17 14:05:47;;;;;;;9.95;9.05;;;;;;;;;;5071176;28;20500;-80
2021/12/17 14:08:16;;;;;;;10.77;9.20;;;;;;;;;;5067845;28;20661;-81
2021/12/17 14:10:43;;;;;;;9.90;8.90;;;;;;;;;;5065395;28;20492;-81
2021/12/17 14:13:16;;;;;;;10.00;9.00;;;;;;;;;;5066042;28;20484;-80
2021/12/17 14:15:45;;;;;;;10.47;9.47;;;;;;;;;;5070180;28;20559;-79
2021/12/17 14:18:15;;;;;;;11.00;9.52;;;;;;;;;;5072639;28;20431;-80
2021/12/17 14:20:43;;;;;;;11.25;8.93;;;;;;;;;;5070676;28;20251;-81
2021/12/17 14:23:12;;;;;;;9.40;8.47;;;;;;;;;;5071168;28;20206;-81
2021/12/17 14:25:40;;;;;;;10.45;9.45;;;;;;;;;;5072090;28;20490;-80
2021/12/17 14:28:11;;;;;;;9.73;8.57;;;;;;;;;;5072906;28;20217;-81
2021/12/17 14:30:39;;;;;;;9.43;8.33;;;;;;;;;;5061921;28;20449;-80
2021/12/17 14:33:09;;;;;;;9.93;8.93;;;;;;;;;;5056817;28;20459;-80
2021/12/17 14:35:40;;;;;;;11.47;10.30;;;;;;;;;;5059797;28;20856;-82
2021/12/17 14:38:07;;;;;;;11.73;10.53;;;;;;;;;;5070565;28;20465;-80
2021/12/17 14:40:41;;;;;;;12.25;11.05;;;;;;;;;;5075510;28;20438;-81
2021/12/17 14:43:25;;;;;;;11.87;10.67;;;;;;;;;;5064278;28;20628;-81
2021/12/17 14:45:55;;;;;;;12.57;11.37;;;;;;;;;;5063527;28;20485;-82
2021/12/17 14:48:32;;;;;;;13.07;11.73;;;;;;;;;;5062618;28;20437;-81
2021/12/17 15:02:46;;;;;;;13.93;12.50;;;;;;;;;;4992413;28;20430;-80
2021/12/17 15:05:15;;;;;;;12.97;11.77;;;;;;;;;;4978290;28;20482;-82
2021/12/17 15:07:43;;;;;;;13.57;12.27;;;;;;;;;;5022132;28;20450;-80
2021/12/17 15:10:12;;;;;;;13.80;12.50;;;;;;;;;;5065246;28;20422;-81
2021/12/17 15:12:39;;;;;;;14.10;12.47;;;;;;;;;;5063419;28;20501;-81
2021/12/17 15:15:18;;;;;;;14.93;13.50;;;;;;;;;;5072616;28;20441;-80
2021/12/17 15:17:45;;;;;;;14.37;12.70;;;;;;;;;;5078593;28;20421;-79
2021/12/17 15:20:13;;;;;;;14.20;12.80;;;;;;;;;;5077860;28;20434;-81
2021/12/17 15:22:42;;;;;;;15.90;13.93;;;;;;;;;;5076629;28;20425;-80
2021/12/17 15:25:10;;;;;;;14.50;12.87;;;;;;;;;;5077346;28;20462;-78
2021/12/17 15:27:37;;;;;;;15.20;13.70;;;;;;;;;;5077439;28;20468;-80
2021/12/17 15:30:06;;;;;;;14.00;12.70;;;;;;;;;;5077931;28;20437;-81
2021/12/17 15:32:33;;;;;;;14.30;12.90;;;;;;;;;;5078144;28;20500;-78
2021/12/17 15:35:00;;;;;;;14.57;13.17;;;;;;;;;;5076891;28;20455;-79
2021/12/17 15:37:27;;;;;;;14.13;12.83;;;;;;;;;;5063358;28;20858;-82
2021/12/17 15:39:56;;;;;;;15.50;14.00;;;;;;;;;;5056390;28;20453;-81
2021/12/17 15:42:23;;;;;;;14.60;13.10;;;;;;;;;;5060062;28;20477;-80
2021/12/17 15:44:50;;;;;;;15.48;13.98;;;;;;;;;;5055784;28;20472;-80
2021/12/17 15:47:17;;;;;;;13.77;12.40;;;;;;;;;;5061469;28;20249;-80
2021/12/17 15:49:44;;;;;;;13.23;12.03;;;;;;;;;;5062575;28;20206;-80
2021/12/17 15:52:11;;;;;;;14.83;13.33;;;;;;;;;;5060539;28;20451;-81
2021/12/17 15:54:39;;;;;;;13.30;11.90;;;;;;;;;;5052359;28;20469;-79
2021/12/17 15:57:08;;;;;;;14.10;12.60;;;;;;;;;;5061835;28;20437;-80
2021/12/17 15:59:35;;;;;;;14.25;12.75;;;;;;;;;;5040840;28;20584;-81
2021/12/17 16:02:03;;;;;;;14.00;12.50;;;;;;;;;;5041417;28;20210;-81
2021/12/17 16:04:34;;;;;;;14.53;12.97;;;;;;;;;;5054722;28;20504;-80
2021/12/17 16:07:02;;;;;;;15.13;13.63;;;;;;;;;;5054861;28;20844;-81
2021/12/17 16:18:14;;;;;;;13.10;11.90;;;;;;;;;;5055979;28;20424;-80
2021/12/17 16:21:01;;;;;;;13.83;12.40;;;;;;;;;;5056594;28;20418;-80
2021/12/17 16:23:28;;;;;;;13.43;12.23;;;;;;;;;;5057332;28;20525;-80
2021/12/17 16:25:55;;;;;;;13.73;12.30;;;;;;;;;;5057274;28;20489;-79
2021/12/17 16:28:23;;;;;;;18.53;13.50;;;;;;;;;;5057389;28;20441;-80
2021/12/17 16:30:50;;;;;;;15.00;13.50;;;;;;;;;;5058027;28;20449;-80
2021/12/17 16:33:17;;;;;;;14.37;12.87;;;;;;;;;;5057187;28;20449;-83
2021/12/17 16:35:45;;;;;;;13.00;11.80;;;;;;;;;;5057088;28;21079;-80
2021/12/17 16:38:12;;;;;;;14.27;12.82;;;;;;;;;;5057867;28;20442;-82
2021/12/17 16:40:39;;;;;;;14.20;12.87;;;;;;;;;;5060497;28;20284;-83
2021/12/17 16:43:06;;;;;;;14.57;13.27;;;;;;;;;;5058411;28;20457;-80
2021/12/17 16:45:39;;;;;;;17.40;15.50;;;;;;;;;;5058159;28;20469;-82
2021/12/17 16:48:07;;;;;;;15.43;13.83;;;;;;;;;;5055912;28;20538;-81
2021/12/17 16:50:35;;;;;;;14.77;13.27;;;;;;;;;;5056180;28;20450;-81
2021/12/17 16:53:03;;;;;;;14.20;12.90;;;;;;;;;;5056007;28;20450;-81
2021/12/17 16:55:30;;;;;;;14.50;12.97;;;;;;;;;;5056146;28;21059;-80
2021/12/17 16:57:58;;;;;;;14.40;12.67;;;;;;;;;;5056284;28;20437;-80
2021/12/17 17:00:25;;;;;;;16.30;14.67;;;;;;;;;;5056555;28;20460;-81
2021/12/17 17:02:55;;;;;;;19.58;16.17;;;;;;;;;;5057030;28;20448;-80
2021/12/17 17:05:22;;;;;;;18.40;16.20;;;;;;;;;;5056360;28;20295;-81
2021/12/17 17:07:50;;;;;;;16.70;14.90;;;;;;;;;;5056958;28;20477;-82